Time;durP1;ratioP1;P1;durP2;ratioP2;P2;SDS_P1;SDS_P2;PMS_P1;PMS_P2;Temp;Humidity;BMP_temperature;BMP_pressure;BME280_temperature;BME280_humidity;BME280_pressure;Samples;Min_cycle;Max_cycle;Signal;HPM_P1;HPM_P2
2023/05/04 00:01:48;;;;;;;13.18;7.22;;;;;;;;;;6131836;23;20044;-81
2023/05/04 00:04:14;;;;;;;14.98;8.23;;;;;;;;;;6155567;23;20017;-80
2023/05/04 00:06:40;;;;;;;15.02;8.20;;;;;;;;;;6183018;23;20382;-81
2023/05/04 00:09:06;;;;;;;14.38;7.97;;;;;;;;;;6131757;23;20087;-81
2023/05/04 00:11:32;;;;;;;12.85;7.65;;;;;;;;;;6131645;23;20048;-81
2023/05/04 00:13:58;;;;;;;11.70;7.55;;;;;;;;;;6155887;23;20021;-81
2023/05/04 00:16:25;;;;;;;14.02;8.20;;;;;;;;;;6182956;23;20015;-81
2023/05/04 00:18:51;;;;;;;13.45;8.07;;;;;;;;;;6182261;23;20040;-81
2023/05/04 00:21:16;;;;;;;15.80;7.93;;;;;;;;;;6155950;23;20017;-81
2023/05/04 00:23:42;;;;;;;15.75;8.00;;;;;;;;;;6156561;23;20310;-80
2023/05/04 00:26:09;;;;;;;10.40;7.00;;;;;;;;;;6155992;23;20019;-81
2023/05/04 00:28:35;;;;;;;11.23;7.22;;;;;;;;;;6156285;23;20016;-81
2023/05/04 00:31:01;;;;;;;13.15;7.50;;;;;;;;;;6182876;23;20068;-83
2023/05/04 00:33:27;;;;;;;13.98;7.10;;;;;;;;;;6130931;23;20325;-80
2023/05/04 00:35:53;;;;;;;13.80;6.88;;;;;;;;;;6156186;23;20021;-80
2023/05/04 00:38:19;;;;;;;13.30;7.35;;;;;;;;;;6156183;23;20020;-80
2023/05/04 00:40:45;;;;;;;9.88;6.65;;;;;;;;;;6156487;23;20478;-82
2023/05/04 00:43:11;;;;;;;13.05;7.25;;;;;;;;;;6156420;23;20013;-83
2023/05/04 00:45:37;;;;;;;13.80;7.68;;;;;;;;;;6182682;23;20009;-81
2023/05/04 00:48:05;;;;;;;13.40;6.82;;;;;;;;;;6182073;23;20048;-81
2023/05/04 00:50:31;;;;;;;12.52;7.28;;;;;;;;;;6182579;23;20116;-81
2023/05/04 00:52:58;;;;;;;13.32;7.32;;;;;;;;;;6182679;23;20028;-83
2023/05/04 00:55:24;;;;;;;11.55;6.63;;;;;;;;;;6155837;23;20321;-83
2023/05/04 00:57:50;;;;;;;14.13;6.57;;;;;;;;;;6182268;23;20463;-83
2023/05/04 01:00:16;;;;;;;12.35;7.45;;;;;;;;;;6155968;23;20017;-83
2023/05/04 01:02:43;;;;;;;13.40;7.70;;;;;;;;;;6182193;23;20058;-82
2023/05/04 01:05:11;;;;;;;14.30;7.45;;;;;;;;;;6156125;23;20080;-83
2023/05/04 01:07:37;;;;;;;13.25;7.07;;;;;;;;;;6156026;23;20017;-82
2023/05/04 01:10:16;;;;;;;14.57;7.25;;;;;;;;;;6156143;23;20086;-83
2023/05/04 01:12:51;;;;;;;11.38;7.20;;;;;;;;;;6155810;23;20072;-82
2023/05/04 01:15:17;;;;;;;14.68;7.78;;;;;;;;;;6155876;23;20016;-82
2023/05/04 01:17:43;;;;;;;16.02;7.40;;;;;;;;;;6155985;23;20063;-81
2023/05/04 01:20:10;;;;;;;13.45;7.82;;;;;;;;;;6155958;23;20021;-81
2023/05/04 01:22:37;;;;;;;11.50;8.05;;;;;;;;;;6156105;23;20017;-81
2023/05/04 01:25:03;;;;;;;10.57;7.32;;;;;;;;;;6131458;23;20432;-81
2023/05/04 01:27:29;;;;;;;12.40;7.30;;;;;;;;;;6155896;23;20024;-80
2023/05/04 01:30:14;;;;;;;15.20;8.25;;;;;;;;;;6155388;23;20021;-80
2023/05/04 01:32:41;;;;;;;15.13;8.32;;;;;;;;;;6131436;23;20020;-81
2023/05/04 01:35:07;;;;;;;15.35;8.60;;;;;;;;;;6182613;23;20095;-82
2023/05/04 01:37:33;;;;;;;15.00;8.60;;;;;;;;;;6184101;23;20092;-83
2023/05/04 01:40:00;;;;;;;17.10;8.50;;;;;;;;;;6157518;23;20056;-83
2023/05/04 01:42:26;;;;;;;13.85;8.10;;;;;;;;;;6157836;23;20017;-82
2023/05/04 01:44:52;;;;;;;13.75;8.50;;;;;;;;;;6183854;23;20045;-83
2023/05/04 01:47:18;;;;;;;16.77;8.68;;;;;;;;;;6184214;23;20041;-83
2023/05/04 01:49:44;;;;;;;16.60;8.60;;;;;;;;;;6133091;23;20016;-83
2023/05/04 01:52:10;;;;;;;14.55;8.50;;;;;;;;;;6184034;23;20017;-83
2023/05/04 01:54:36;;;;;;;16.27;8.88;;;;;;;;;;6184570;23;20020;-82
2023/05/04 01:57:02;;;;;;;15.70;9.20;;;;;;;;;;6183799;23;20071;-83
2023/05/04 01:59:29;;;;;;;16.48;8.73;;;;;;;;;;6157250;23;20253;-83
2023/05/04 02:01:55;;;;;;;14.10;9.43;;;;;;;;;;6184063;23;20485;-83
2023/05/04 02:04:21;;;;;;;17.08;8.85;;;;;;;;;;6157551;23;20017;-83
2023/05/04 02:06:47;;;;;;;16.80;9.32;;;;;;;;;;6157460;23;20013;-82
2023/05/04 02:09:13;;;;;;;17.27;9.95;;;;;;;;;;6133032;23;20108;-81
2023/05/04 02:11:40;;;;;;;20.10;9.35;;;;;;;;;;6157816;23;20411;-81
2023/05/04 02:14:06;;;;;;;13.48;9.52;;;;;;;;;;6183259;23;20170;-81
2023/05/04 02:16:32;;;;;;;18.77;9.65;;;;;;;;;;6132812;23;20024;-81
2023/05/04 02:18:58;;;;;;;12.40;9.07;;;;;;;;;;6157626;23;20096;-83
2023/05/04 02:21:24;;;;;;;16.30;9.98;;;;;;;;;;6184202;23;20120;-83
2023/05/04 02:23:50;;;;;;;20.38;9.80;;;;;;;;;;6157554;23;20039;-83
2023/05/04 02:26:16;;;;;;;16.65;10.73;;;;;;;;;;6157259;23;20297;-83
2023/05/04 02:28:42;;;;;;;15.20;10.50;;;;;;;;;;6183640;23;20064;-83
2023/05/04 02:31:08;;;;;;;16.35;10.40;;;;;;;;;;6132676;23;20394;-83
2023/05/04 02:33:34;;;;;;;15.75;9.77;;;;;;;;;;6184087;23;20017;-83
2023/05/04 02:36:00;;;;;;;16.48;11.02;;;;;;;;;;6184041;23;20096;-83
2023/05/04 02:38:27;;;;;;;17.83;10.93;;;;;;;;;;6157371;23;20317;-83
2023/05/04 02:40:53;;;;;;;17.58;11.15;;;;;;;;;;6184100;23;20013;-83
2023/05/04 02:43:18;;;;;;;15.85;10.88;;;;;;;;;;6183755;23;20016;-81
2023/05/04 02:45:44;;;;;;;20.90;11.00;;;;;;;;;;6157290;23;20483;-81
2023/05/04 02:48:10;;;;;;;16.42;10.23;;;;;;;;;;6183170;23;20009;-81
2023/05/04 02:50:36;;;;;;;17.75;10.55;;;;;;;;;;6183417;23;20376;-80
2023/05/04 02:53:02;;;;;;;17.80;10.68;;;;;;;;;;6157483;23;20068;-81
2023/05/04 02:55:28;;;;;;;19.30;11.50;;;;;;;;;;6184106;23;20067;-80
2023/05/04 02:57:54;;;;;;;18.50;11.38;;;;;;;;;;6156403;23;20013;-80
2023/05/04 03:00:20;;;;;;;17.10;11.55;;;;;;;;;;6132359;23;20021;-80
2023/05/04 03:02:46;;;;;;;17.52;12.05;;;;;;;;;;6157486;23;20009;-81
2023/05/04 03:05:13;;;;;;;17.90;11.70;;;;;;;;;;6183816;23;20100;-81
2023/05/04 03:07:39;;;;;;;18.50;11.23;;;;;;;;;;6156932;23;20092;-80
2023/05/04 03:10:07;;;;;;;20.83;11.88;;;;;;;;;;6157134;23;20348;-81
2023/05/04 03:12:33;;;;;;;19.52;11.50;;;;;;;;;;6156415;23;20084;-81
2023/05/04 03:14:59;;;;;;;16.50;11.95;;;;;;;;;;6183508;23;20024;-81
2023/05/04 03:17:25;;;;;;;16.35;10.68;;;;;;;;;;6183526;23;20020;-81
2023/05/04 03:19:51;;;;;;;18.17;11.60;;;;;;;;;;6157076;23;20013;-81
2023/05/04 03:22:17;;;;;;;17.10;10.80;;;;;;;;;;6183525;23;20016;-81
2023/05/04 03:24:43;;;;;;;16.83;11.82;;;;;;;;;;6183405;23;20013;-80
2023/05/04 03:27:09;;;;;;;21.25;12.13;;;;;;;;;;6131675;23;20068;-81
2023/05/04 03:29:35;;;;;;;16.67;11.00;;;;;;;;;;6156969;23;20016;-81
2023/05/04 03:32:01;;;;;;;20.92;13.35;;;;;;;;;;6156600;23;20009;-81
2023/05/04 03:34:27;;;;;;;16.75;11.30;;;;;;;;;;6156569;23;20020;-81
2023/05/04 03:36:54;;;;;;;17.63;12.20;;;;;;;;;;6183399;23;20087;-83
2023/05/04 03:39:20;;;;;;;21.17;12.40;;;;;;;;;;6156726;23;20013;-83
2023/05/04 03:41:46;;;;;;;23.70;12.13;;;;;;;;;;6182740;23;20028;-83
2023/05/04 03:44:12;;;;;;;18.20;11.93;;;;;;;;;;6183177;23;20036;-83
2023/05/04 03:46:38;;;;;;;16.58;11.90;;;;;;;;;;6156477;23;20017;-83
2023/05/04 03:49:04;;;;;;;19.35;13.07;;;;;;;;;;6183258;23;20105;-82
2023/05/04 03:51:30;;;;;;;18.67;12.15;;;;;;;;;;6182766;23;20025;-83
2023/05/04 03:53:56;;;;;;;21.15;12.43;;;;;;;;;;6156398;23;20013;-83
2023/05/04 03:56:22;;;;;;;21.38;12.65;;;;;;;;;;6182600;23;20057;-83
2023/05/04 03:58:48;;;;;;;18.55;12.30;;;;;;;;;;6183171;23;20024;-81
2023/05/04 04:01:14;;;;;;;15.35;11.15;;;;;;;;;;6183076;23;20340;-83
2023/05/04 04:03:40;;;;;;;18.38;12.45;;;;;;;;;;6131799;23;20021;-83
2023/05/04 04:06:09;;;;;;;19.05;12.50;;;;;;;;;;6182981;23;20009;-83
2023/05/04 04:08:35;;;;;;;16.88;11.93;;;;;;;;;;6131792;23;20063;-82
2023/05/04 04:11:02;;;;;;;17.15;12.57;;;;;;;;;;6182494;23;20084;-83
2023/05/04 04:13:28;;;;;;;17.15;12.02;;;;;;;;;;6155805;23;20021;-81
2023/05/04 04:15:54;;;;;;;18.85;12.00;;;;;;;;;;6182765;23;20422;-81
2023/05/04 04:18:20;;;;;;;16.92;11.32;;;;;;;;;;6156351;23;20017;-81
2023/05/04 04:20:46;;;;;;;21.77;11.32;;;;;;;;;;6182762;23;20095;-82
2023/05/04 04:23:12;;;;;;;18.83;11.27;;;;;;;;;;6131598;23;20020;-81
2023/05/04 04:25:38;;;;;;;17.90;12.43;;;;;;;;;;6155551;23;20008;-81
2023/05/04 04:28:04;;;;;;;18.67;11.65;;;;;;;;;;6182724;23;20416;-79
2023/05/04 04:30:30;;;;;;;16.65;11.20;;;;;;;;;;6155812;23;20027;-79
2023/05/04 04:32:56;;;;;;;18.25;11.98;;;;;;;;;;6182801;23;20079;-81
2023/05/04 04:35:23;;;;;;;17.38;11.25;;;;;;;;;;6156076;23;20024;-80
2023/05/04 04:37:50;;;;;;;18.10;11.85;;;;;;;;;;6182673;23;20014;-81
2023/05/04 04:40:16;;;;;;;19.42;11.55;;;;;;;;;;6131091;23;20544;-81
2023/05/04 04:42:42;;;;;;;16.77;10.40;;;;;;;;;;6155944;23;20474;-81
2023/05/04 04:45:09;;;;;;;20.52;11.07;;;;;;;;;;6182601;23;20013;-81
2023/05/04 04:47:35;;;;;;;17.38;11.07;;;;;;;;;;6155926;23;20017;-81
2023/05/04 04:50:03;;;;;;;15.98;10.88;;;;;;;;;;6156010;23;20457;-81
2023/05/04 04:52:31;;;;;;;17.85;11.02;;;;;;;;;;6182633;23;20127;-81
2023/05/04 04:54:57;;;;;;;22.83;11.48;;;;;;;;;;6155524;23;20052;-81
2023/05/04 04:57:23;;;;;;;16.58;11.20;;;;;;;;;;6131381;23;20009;-81
2023/05/04 04:59:49;;;;;;;19.92;11.85;;;;;;;;;;6182321;23;20455;-81
2023/05/04 05:02:15;;;;;;;15.45;10.52;;;;;;;;;;6155926;23;20017;-81
2023/05/04 05:04:41;;;;;;;18.83;10.50;;;;;;;;;;6155838;23;20009;-81
2023/05/04 05:07:07;;;;;;;16.75;10.80;;;;;;;;;;6182039;23;20063;-82
2023/05/04 05:09:34;;;;;;;17.75;10.90;;;;;;;;;;6182634;23;20009;-81
2023/05/04 05:12:00;;;;;;;14.98;9.85;;;;;;;;;;6132890;23;20042;-82
2023/05/04 05:14:26;;;;;;;21.75;11.00;;;;;;;;;;6157833;23;20092;-82
2023/05/04 05:16:53;;;;;;;18.25;10.98;;;;;;;;;;6184105;23;20476;-81
2023/05/04 05:19:19;;;;;;;17.40;9.77;;;;;;;;;;6184725;23;20092;-80
2023/05/04 05:21:46;;;;;;;14.57;9.82;;;;;;;;;;6183988;23;20056;-80
2023/05/04 05:24:16;;;;;;;18.70;10.57;;;;;;;;;;6157871;23;20054;-81
2023/05/04 05:26:42;;;;;;;14.45;10.23;;;;;;;;;;6158424;23;20020;-81
2023/05/04 05:29:08;;;;;;;17.25;10.20;;;;;;;;;;6158220;23;20017;-81
2023/05/04 05:31:34;;;;;;;17.85;10.27;;;;;;;;;;6184660;23;20048;-81
2023/05/04 05:34:00;;;;;;;14.93;9.93;;;;;;;;;;6133425;23;20417;-82
2023/05/04 05:36:27;;;;;;;19.52;10.45;;;;;;;;;;6157416;23;20091;-81
2023/05/04 05:38:53;;;;;;;18.55;11.15;;;;;;;;;;6183807;23;20021;-82
2023/05/04 05:41:19;;;;;;;17.90;9.93;;;;;;;;;;6183986;23;20321;-82
2023/05/04 05:43:46;;;;;;;14.80;10.07;;;;;;;;;;6157571;23;20017;-81
2023/05/04 05:46:12;;;;;;;10.07;8.25;;;;;;;;;;6183933;23;20344;-81
2023/05/04 05:48:38;;;;;;;18.33;9.95;;;;;;;;;;6184234;23;20356;-82
2023/05/04 05:51:04;;;;;;;15.73;9.95;;;;;;;;;;6157047;23;20023;-82
2023/05/04 05:53:30;;;;;;;16.42;9.05;;;;;;;;;;6184177;23;20049;-82
2023/05/04 05:55:56;;;;;;;13.80;8.98;;;;;;;;;;6157374;23;20024;-81
2023/05/04 05:58:22;;;;;;;12.07;8.80;;;;;;;;;;6157273;23;20158;-82
2023/05/04 06:00:48;;;;;;;13.73;8.52;;;;;;;;;;6157249;23;20013;-81
2023/05/04 06:03:14;;;;;;;13.10;8.77;;;;;;;;;;6184020;23;20016;-81
2023/05/04 06:05:40;;;;;;;14.00;8.40;;;;;;;;;;6156784;23;20638;-81
2023/05/04 06:08:06;;;;;;;17.17;8.60;;;;;;;;;;6157289;23;20451;-81
2023/05/04 06:10:33;;;;;;;13.05;8.50;;;;;;;;;;6184092;23;20191;-82
2023/05/04 06:13:00;;;;;;;18.55;11.25;;;;;;;;;;6183585;23;20013;-83
2023/05/04 06:15:26;;;;;;;13.85;8.55;;;;;;;;;;6183419;23;20013;-82
2023/05/04 06:17:52;;;;;;;16.38;9.88;;;;;;;;;;6157258;23;20020;-82
2023/05/04 06:20:18;;;;;;;15.63;8.68;;;;;;;;;;6156397;23;20024;-82
2023/05/04 06:22:44;;;;;;;13.38;8.55;;;;;;;;;;6183296;23;20025;-82
2023/05/04 06:25:10;;;;;;;18.20;8.75;;;;;;;;;;6183991;23;20082;-82
2023/05/04 06:27:36;;;;;;;12.27;8.02;;;;;;;;;;6157022;23;20091;-82
2023/05/04 06:30:02;;;;;;;13.35;8.50;;;;;;;;;;6156937;23;20065;-82
2023/05/04 06:32:29;;;;;;;18.48;8.10;;;;;;;;;;6132599;23;20017;-82
2023/05/04 06:34:55;;;;;;;16.17;8.18;;;;;;;;;;6156519;23;20028;-82
2023/05/04 06:37:22;;;;;;;16.85;9.15;;;;;;;;;;6157022;23;20045;-82
2023/05/04 06:39:48;;;;;;;18.58;8.07;;;;;;;;;;6157058;23;20339;-82
2023/05/04 06:42:14;;;;;;;13.35;7.95;;;;;;;;;;6183851;23;20072;-81
2023/05/04 06:44:40;;;;;;;12.40;8.02;;;;;;;;;;6151736;23;20400;-81
2023/05/04 06:47:06;;;;;;;13.23;7.45;;;;;;;;;;6156734;23;20352;-82
2023/05/04 06:49:33;;;;;;;11.13;7.20;;;;;;;;;;6182587;23;20021;-82
2023/05/04 06:51:59;;;;;;;11.73;7.95;;;;;;;;;;6183449;23;20349;-82
2023/05/04 06:54:26;;;;;;;12.32;7.45;;;;;;;;;;6156031;23;20472;-82
2023/05/04 06:56:52;;;;;;;15.77;7.68;;;;;;;;;;6156636;23;20122;-82
2023/05/04 06:59:19;;;;;;;11.13;7.00;;;;;;;;;;6183110;23;20416;-83
2023/05/04 07:01:46;;;;;;;12.68;7.72;;;;;;;;;;6183129;23;20120;-82
2023/05/04 07:04:15;;;;;;;15.77;7.63;;;;;;;;;;6154839;23;20017;-82
2023/05/04 07:06:42;;;;;;;12.48;7.50;;;;;;;;;;6156664;23;20379;-83
2023/05/04 07:09:08;;;;;;;14.07;7.18;;;;;;;;;;6156651;23;20055;-83
2023/05/04 07:11:34;;;;;;;13.45;7.70;;;;;;;;;;6156865;23;20025;-84
2023/05/04 07:14:00;;;;;;;12.65;6.95;;;;;;;;;;6181285;23;20112;-83
2023/05/04 07:16:26;;;;;;;13.27;6.95;;;;;;;;;;6156004;23;20174;-82
2023/05/04 07:18:52;;;;;;;11.60;7.10;;;;;;;;;;6155797;23;20068;-84
2023/05/04 07:21:18;;;;;;;11.50;7.25;;;;;;;;;;6182818;23;20459;-87
2023/05/04 07:23:44;;;;;;;14.05;7.47;;;;;;;;;;6156888;23;20017;-83
2023/05/04 07:26:10;;;;;;;12.80;6.80;;;;;;;;;;6156578;23;20472;-84
2023/05/04 07:28:37;;;;;;;12.15;7.15;;;;;;;;;;6183268;23;20118;-84
2023/05/04 07:31:03;;;;;;;12.15;6.97;;;;;;;;;;6155634;23;20459;-84
2023/05/04 07:33:29;;;;;;;11.52;7.53;;;;;;;;;;6155755;23;20345;-84
2023/05/04 07:35:59;;;;;;;18.20;8.18;;;;;;;;;;6156383;23;20021;-83
2023/05/04 07:38:28;;;;;;;13.20;7.20;;;;;;;;;;6154572;23;20052;-84
2023/05/04 07:40:54;;;;;;;13.57;7.20;;;;;;;;;;6153909;23;20013;-83
2023/05/04 07:43:21;;;;;;;13.73;7.10;;;;;;;;;;6180741;23;20013;-84
2023/05/04 07:45:47;;;;;;;11.30;7.00;;;;;;;;;;6180665;23;20017;-84
2023/05/04 07:48:13;;;;;;;12.43;6.60;;;;;;;;;;6153016;23;20047;-84
2023/05/04 07:50:39;;;;;;;10.95;6.25;;;;;;;;;;6153776;23;20305;-84
2023/05/04 07:53:05;;;;;;;12.43;7.43;;;;;;;;;;6154685;23;20024;-84
2023/05/04 07:55:31;;;;;;;13.70;7.22;;;;;;;;;;6183091;23;20048;-84
2023/05/04 07:57:57;;;;;;;10.20;6.50;;;;;;;;;;6182432;23;20396;-84
2023/05/04 08:00:23;;;;;;;18.02;7.38;;;;;;;;;;6182790;23;20088;-84
2023/05/04 08:02:49;;;;;;;13.57;6.57;;;;;;;;;;6155795;23;20158;-84
2023/05/04 08:05:15;;;;;;;16.27;7.43;;;;;;;;;;6155943;23;20013;-84
2023/05/04 08:07:41;;;;;;;11.80;6.97;;;;;;;;;;6155922;23;20432;-83
2023/05/04 08:10:08;;;;;;;11.48;6.55;;;;;;;;;;6156202;23;20052;-83
2023/05/04 08:12:34;;;;;;;15.00;6.95;;;;;;;;;;6182747;23;20013;-84
2023/05/04 08:15:00;;;;;;;13.63;7.20;;;;;;;;;;6156117;23;20017;-84
2023/05/04 08:17:27;;;;;;;11.02;6.75;;;;;;;;;;6130805;23;20017;-84
2023/05/04 08:19:53;;;;;;;11.50;6.47;;;;;;;;;;6155968;23;20021;-84
2023/05/04 08:22:20;;;;;;;14.20;6.90;;;;;;;;;;6182731;23;20013;-84
2023/05/04 08:24:49;;;;;;;12.07;5.72;;;;;;;;;;6155865;23;20017;-84
2023/05/04 08:27:15;;;;;;;10.45;6.47;;;;;;;;;;6156260;23;20075;-84
2023/05/04 08:29:41;;;;;;;12.13;6.18;;;;;;;;;;6155835;23;20400;-84
2023/05/04 08:32:07;;;;;;;13.93;6.53;;;;;;;;;;6155243;23;20016;-84
2023/05/04 08:34:33;;;;;;;9.73;6.45;;;;;;;;;;6155637;23;20084;-84
2023/05/04 08:36:59;;;;;;;14.23;6.72;;;;;;;;;;6155667;23;20473;-84
2023/05/04 08:39:25;;;;;;;10.20;5.75;;;;;;;;;;6182608;23;20017;-84
2023/05/04 08:41:52;;;;;;;11.90;6.18;;;;;;;;;;6155879;23;20219;-83
2023/05/04 08:44:18;;;;;;;9.45;5.93;;;;;;;;;;6182637;23;20024;-84
2023/05/04 08:46:52;;;;;;;11.57;6.95;;;;;;;;;;6155001;23;20385;-84
2023/05/04 08:49:23;;;;;;;9.35;5.68;;;;;;;;;;6156271;23;20040;-84
2023/05/04 08:51:50;;;;;;;20.83;6.40;;;;;;;;;;6182335;23;20087;-83
2023/05/04 08:54:16;;;;;;;12.68;6.10;;;;;;;;;;6155854;23;20017;-84
2023/05/04 08:56:44;;;;;;;11.65;6.10;;;;;;;;;;6131429;23;20013;-84
2023/05/04 08:59:16;;;;;;;8.85;5.65;;;;;;;;;;6155662;23;20012;-84
2023/05/04 09:01:43;;;;;;;12.30;6.10;;;;;;;;;;6182491;23;20009;-84
2023/05/04 09:04:09;;;;;;;11.48;5.60;;;;;;;;;;6155778;23;20014;-85
2023/05/04 09:06:36;;;;;;;11.70;5.88;;;;;;;;;;6182655;23;20013;-84
2023/05/04 09:09:02;;;;;;;9.15;5.43;;;;;;;;;;6155579;23;20460;-84
2023/05/04 09:11:28;;;;;;;12.40;5.75;;;;;;;;;;6155983;23;20032;-84
2023/05/04 09:13:54;;;;;;;12.93;5.70;;;;;;;;;;6155143;23;20326;-84
2023/05/04 09:16:20;;;;;;;16.58;5.65;;;;;;;;;;6155803;23;20029;-84
2023/05/04 09:18:47;;;;;;;11.95;5.60;;;;;;;;;;6155791;23;20396;-85
2023/05/04 09:21:13;;;;;;;11.15;5.82;;;;;;;;;;6155965;23;20009;-84
2023/05/04 09:23:46;;;;;;;10.48;5.43;;;;;;;;;;6182482;23;20017;-84
2023/05/04 09:26:12;;;;;;;12.35;6.00;;;;;;;;;;6131179;23;20036;-84
2023/05/04 09:28:39;;;;;;;11.00;5.50;;;;;;;;;;6155111;23;20044;-84
2023/05/04 09:31:06;;;;;;;9.73;5.45;;;;;;;;;;6131003;23;20055;-85
2023/05/04 09:33:32;;;;;;;18.88;6.13;;;;;;;;;;6155744;23;20079;-84
2023/05/04 09:36:19;;;;;;;9.02;5.22;;;;;;;;;;6131040;23;20020;-84
2023/05/04 09:38:46;;;;;;;9.68;5.65;;;;;;;;;;6155583;23;20021;-84
2023/05/04 09:41:12;;;;;;;9.63;4.88;;;;;;;;;;6155561;23;20368;-84
2023/05/04 09:43:41;;;;;;;10.18;5.75;;;;;;;;;;6181702;23;20021;-84
2023/05/04 09:46:15;;;;;;;13.00;5.65;;;;;;;;;;6155416;23;20065;-84
2023/05/04 09:48:50;;;;;;;12.48;5.82;;;;;;;;;;6155579;23;20024;-84
2023/05/04 09:51:18;;;;;;;13.07;5.10;;;;;;;;;;6155665;23;20060;-84
2023/05/04 09:53:44;;;;;;;10.70;5.43;;;;;;;;;;6130918;23;20021;-84
2023/05/04 09:56:29;;;;;;;12.27;6.10;;;;;;;;;;6182187;23;20016;-84
2023/05/04 09:58:58;;;;;;;13.25;5.82;;;;;;;;;;6156637;23;20078;-84
2023/05/04 10:01:30;;;;;;;14.52;5.97;;;;;;;;;;6157050;23;20013;-84
2023/05/04 10:03:56;;;;;;;11.07;5.63;;;;;;;;;;6157191;23;20340;-84
2023/05/04 10:06:28;;;;;;;13.90;5.00;;;;;;;;;;6157154;23;20013;-84
2023/05/04 10:08:55;;;;;;;9.48;4.80;;;;;;;;;;6157290;23;20325;-84
2023/05/04 10:11:24;;;;;;;9.30;4.85;;;;;;;;;;6157225;23;20048;-84
2023/05/04 10:13:50;;;;;;;13.18;5.43;;;;;;;;;;6156174;23;20035;-84
2023/05/04 10:16:20;;;;;;;11.07;5.78;;;;;;;;;;6183904;23;20013;-85
2023/05/04 10:18:46;;;;;;;8.15;5.10;;;;;;;;;;6183969;23;20016;-84
2023/05/04 10:21:24;;;;;;;8.80;5.40;;;;;;;;;;6183723;23;20013;-84
2023/05/04 10:23:59;;;;;;;9.70;5.75;;;;;;;;;;6157154;23;20040;-84
2023/05/04 10:27:02;;;;;;;12.23;5.68;;;;;;;;;;6183470;23;20071;-84
2023/05/04 10:29:29;;;;;;;14.82;5.63;;;;;;;;;;6096867;23;20453;-84
2023/05/04 10:31:56;;;;;;;17.35;5.20;;;;;;;;;;6121574;23;20105;-84
2023/05/04 10:34:25;;;;;;;10.65;4.95;;;;;;;;;;6121339;23;20025;-84
2023/05/04 10:36:52;;;;;;;8.85;4.72;;;;;;;;;;6121394;23;20018;-84
2023/05/04 10:39:19;;;;;;;11.20;4.47;;;;;;;;;;6121256;23;20029;-83
2023/05/04 10:42:04;;;;;;;9.48;5.10;;;;;;;;;;6096357;23;20018;-84
2023/05/04 10:44:32;;;;;;;9.93;5.03;;;;;;;;;;6096811;23;20013;-84
2023/05/04 10:47:02;;;;;;;11.27;4.72;;;;;;;;;;6096954;23;20375;-83
2023/05/04 10:49:29;;;;;;;14.05;5.80;;;;;;;;;;6096661;23;20021;-85
2023/05/04 10:52:08;;;;;;;9.90;5.10;;;;;;;;;;6096799;23;20025;-85
2023/05/04 10:54:35;;;;;;;8.98;4.80;;;;;;;;;;6121178;23;20471;-84
2023/05/04 10:57:12;;;;;;;9.93;4.32;;;;;;;;;;6120562;23;20061;-84
2023/05/04 10:59:39;;;;;;;13.50;4.95;;;;;;;;;;6096500;23;20088;-84
2023/05/04 11:02:06;;;;;;;14.35;5.63;;;;;;;;;;6096433;23;20458;-84
2023/05/04 11:04:32;;;;;;;9.88;5.13;;;;;;;;;;6154989;23;20012;-84
2023/05/04 11:06:59;;;;;;;9.50;4.55;;;;;;;;;;6156468;23;20072;-84
2023/05/04 11:09:27;;;;;;;10.70;4.55;;;;;;;;;;6131431;23;20024;-84
2023/05/04 11:11:56;;;;;;;12.50;5.25;;;;;;;;;;6155837;23;20013;-84
2023/05/04 11:14:24;;;;;;;11.35;5.03;;;;;;;;;;6182636;23;20459;-83
2023/05/04 11:16:50;;;;;;;10.80;4.68;;;;;;;;;;6183520;23;20092;-87
2023/05/04 11:19:17;;;;;;;9.93;5.57;;;;;;;;;;6157123;23;20058;-86
2023/05/04 11:21:43;;;;;;;15.50;4.95;;;;;;;;;;6156769;23;20025;-86
2023/05/04 11:24:09;;;;;;;10.52;5.75;;;;;;;;;;6156544;23;20471;-83
2023/05/04 11:26:46;;;;;;;9.85;4.95;;;;;;;;;;6156510;23;20071;-83
2023/05/04 11:29:15;;;;;;;12.70;5.25;;;;;;;;;;6182986;23;20436;-83
2023/05/04 11:31:43;;;;;;;9.43;5.25;;;;;;;;;;6179442;23;20024;-83
2023/05/04 11:34:18;;;;;;;8.68;4.78;;;;;;;;;;6155487;23;20024;-82
2023/05/04 11:36:44;;;;;;;8.65;5.93;;;;;;;;;;6156200;23;20024;-83
2023/05/04 11:39:10;;;;;;;10.95;5.32;;;;;;;;;;6155703;23;20319;-82
2023/05/04 11:41:37;;;;;;;13.23;5.53;;;;;;;;;;6155787;23;20080;-82
2023/05/04 11:44:03;;;;;;;9.25;5.28;;;;;;;;;;6182317;23;20502;-83
2023/05/04 11:46:29;;;;;;;7.75;5.32;;;;;;;;;;6156178;23;20059;-83
2023/05/04 11:48:55;;;;;;;11.50;5.47;;;;;;;;;;6182608;23;20148;-83
2023/05/04 11:51:24;;;;;;;9.35;5.57;;;;;;;;;;6182489;23;20017;-83
2023/05/04 11:53:50;;;;;;;9.15;5.05;;;;;;;;;;6155205;23;20013;-83
2023/05/04 11:56:16;;;;;;;10.23;4.38;;;;;;;;;;6155880;23;20084;-84
2023/05/04 11:58:42;;;;;;;17.17;5.70;;;;;;;;;;6182478;23;20092;-83
2023/05/04 12:01:08;;;;;;;11.35;5.60;;;;;;;;;;6155815;23;20036;-83
2023/05/04 12:03:38;;;;;;;11.63;6.03;;;;;;;;;;6182602;23;20122;-83
2023/05/04 12:06:05;;;;;;;8.82;4.97;;;;;;;;;;6182715;23;20013;-83
2023/05/04 12:08:40;;;;;;;12.50;5.88;;;;;;;;;;6155410;23;20032;-82
2023/05/04 12:11:23;;;;;;;9.00;5.13;;;;;;;;;;6182857;23;20021;-83
2023/05/04 12:14:00;;;;;;;11.95;5.72;;;;;;;;;;6155351;23;20024;-83
2023/05/04 12:16:26;;;;;;;9.45;5.30;;;;;;;;;;6131338;23;20013;-82
2023/05/04 12:19:01;;;;;;;11.25;5.30;;;;;;;;;;6155878;23;20047;-83
2023/05/04 12:21:27;;;;;;;9.05;5.35;;;;;;;;;;6131155;23;20017;-83
2023/05/04 12:23:56;;;;;;;11.05;5.25;;;;;;;;;;6181378;23;20051;-83
2023/05/04 12:26:22;;;;;;;12.88;5.70;;;;;;;;;;6155988;23;20059;-84
2023/05/04 12:28:48;;;;;;;10.65;5.40;;;;;;;;;;6155757;23;20021;-83
2023/05/04 12:31:14;;;;;;;14.82;5.68;;;;;;;;;;6155820;23;20017;-83
2023/05/04 12:33:41;;;;;;;8.00;5.15;;;;;;;;;;6155647;23;20025;-83
2023/05/04 12:36:07;;;;;;;12.63;4.85;;;;;;;;;;6156018;23;20017;-83
2023/05/04 12:38:33;;;;;;;10.38;5.00;;;;;;;;;;6155348;23;20017;-83
2023/05/04 12:41:02;;;;;;;14.60;5.40;;;;;;;;;;6156115;23;20017;-83
2023/05/04 12:43:28;;;;;;;11.27;5.35;;;;;;;;;;6155986;23;20018;-84
2023/05/04 12:45:54;;;;;;;6.88;4.32;;;;;;;;;;6156000;23;20052;-86
2023/05/04 12:48:20;;;;;;;15.50;4.85;;;;;;;;;;6156575;23;20013;-85
2023/05/04 12:50:50;;;;;;;10.65;4.97;;;;;;;;;;6155919;23;20013;-84
2023/05/04 12:53:16;;;;;;;8.38;4.80;;;;;;;;;;6155374;23;20079;-84
2023/05/04 12:55:45;;;;;;;9.32;4.97;;;;;;;;;;6156139;23;20021;-84
2023/05/04 12:58:11;;;;;;;9.32;4.43;;;;;;;;;;6156390;23;20035;-84
2023/05/04 13:00:38;;;;;;;11.50;5.35;;;;;;;;;;6156214;23;20420;-84
2023/05/04 13:03:05;;;;;;;10.05;4.80;;;;;;;;;;6131319;23;20020;-83
2023/05/04 13:05:31;;;;;;;8.98;5.00;;;;;;;;;;6156099;23;20471;-84
2023/05/04 13:07:57;;;;;;;10.52;4.30;;;;;;;;;;6155556;23;20027;-84
2023/05/04 13:10:24;;;;;;;8.45;5.10;;;;;;;;;;6182467;23;20436;-84
2023/05/04 13:12:50;;;;;;;7.47;4.65;;;;;;;;;;6156138;23;20162;-84
2023/05/04 13:15:16;;;;;;;11.60;5.32;;;;;;;;;;6155637;23;20092;-84
2023/05/04 13:17:43;;;;;;;12.13;4.80;;;;;;;;;;6182660;23;20017;-84
2023/05/04 13:20:09;;;;;;;9.52;4.47;;;;;;;;;;6181426;23;20017;-84
2023/05/04 13:22:35;;;;;;;9.48;5.07;;;;;;;;;;6182668;23;20017;-84
2023/05/04 13:25:02;;;;;;;10.38;5.03;;;;;;;;;;6155592;23;20044;-84
2023/05/04 13:27:28;;;;;;;11.77;4.75;;;;;;;;;;6156402;23;20013;-84
2023/05/04 13:29:54;;;;;;;9.23;4.70;;;;;;;;;;6182713;23;20009;-84
2023/05/04 13:32:20;;;;;;;8.77;4.90;;;;;;;;;;6156849;23;20471;-84
2023/05/04 13:34:47;;;;;;;14.38;4.70;;;;;;;;;;6183781;23;20013;-84
2023/05/04 13:37:17;;;;;;;7.88;4.85;;;;;;;;;;6157712;23;20317;-84
2023/05/04 13:39:43;;;;;;;11.48;4.32;;;;;;;;;;6158227;23;20435;-84
2023/05/04 13:42:10;;;;;;;7.22;4.00;;;;;;;;;;6157729;23;20017;-84
2023/05/04 13:44:36;;;;;;;9.15;4.72;;;;;;;;;;6184186;23;20005;-82
2023/05/04 13:47:03;;;;;;;8.52;4.20;;;;;;;;;;6157323;23;20013;-82
2023/05/04 13:49:29;;;;;;;7.40;3.50;;;;;;;;;;6156895;23;20013;-82
2023/05/04 13:51:58;;;;;;;9.98;3.88;;;;;;;;;;6157461;23;20021;-84
2023/05/04 13:54:24;;;;;;;11.10;4.32;;;;;;;;;;6132506;23;20088;-83
2023/05/04 13:56:51;;;;;;;10.48;4.38;;;;;;;;;;6184232;23;20388;-84
2023/05/04 13:59:17;;;;;;;9.88;4.50;;;;;;;;;;6157978;23;20036;-83
2023/05/04 14:01:43;;;;;;;12.82;4.28;;;;;;;;;;6157211;23;20017;-84
2023/05/04 14:04:09;;;;;;;7.70;4.00;;;;;;;;;;6156618;23;20093;-84
2023/05/04 14:06:35;;;;;;;9.35;4.20;;;;;;;;;;6157662;23;20016;-84
2023/05/04 14:09:01;;;;;;;6.05;3.75;;;;;;;;;;6183893;23;20013;-84
2023/05/04 14:11:27;;;;;;;10.90;3.47;;;;;;;;;;6184121;23;20013;-84
2023/05/04 14:13:54;;;;;;;7.22;3.72;;;;;;;;;;6157046;23;20111;-84
2023/05/04 14:16:20;;;;;;;8.15;3.80;;;;;;;;;;6157479;23;20092;-84
2023/05/04 14:18:46;;;;;;;9.77;4.18;;;;;;;;;;6183381;23;20034;-84
2023/05/04 14:21:12;;;;;;;11.63;3.85;;;;;;;;;;6183848;23;20092;-84
2023/05/04 14:23:39;;;;;;;11.90;4.25;;;;;;;;;;6157042;23;20017;-84
2023/05/04 14:26:05;;;;;;;8.90;3.67;;;;;;;;;;6157201;23;20071;-84
2023/05/04 14:28:31;;;;;;;8.55;3.65;;;;;;;;;;6157135;23;20401;-84